Reno, NV

3:08 PM PST on January 29, 2015 (GMT -0800)
Carson | Change Station
CLOSE
Current Station
Airport
Location: Carson City,
Elevation: 4705 ft
Nearby Weather Stations

Elev 4705 ft 39.19 °N, 119.73 °W | Updated 13 minutes ago

Partly Cloudy
Partly Cloudy
55 °F
Feels Like 55 °F
N
14
Wind Variable Wind from East
Gusts 18 mph

Today
High -- | Low -- °F
--% Chance of Precip.
Yesterday
High -- | Low -- °F
Precip. -- in
7:09 AM 5:15 PM
Waxing Gibbous, 78% visible
Pressure 30.16 in
Visibility 10.0 miles
Clouds Clear
Dew Point 32 °F
Humidity 41%
Rainfall 0.00 in
Snow Depth Not available.
UV 2 out of 12
Pollen 4.10 out of 12
Air Quality Not available.
Flu Activity Not available.
METAR KCXP 292255Z AUTO 08012G16KT 10SM CLR 13/00 A3016 RMK AO2

More Conditions Fewer Conditions

Pressure 30.16 in
Visibility 10.0 miles
Clouds Clear
Dew Point 32 °F
Humidity 41%
Rainfall 0.00 in
Snow Depth Not available.
UV 2 out of 12
Pollen 4.10 out of 12
Air Quality Not available.
Flu Activity Not available.
METAR KCXP 292255Z AUTO 08012G16KT 10SM CLR 13/00 A3016 RMK AO2

More Conditions Fewer Conditions

10-Day Weather Forecast

Almanac

Astronomy

Jan. 29, 2015 Rise Set
Actual Time
Civil Twilight
Nautical Twilight
Astronomical Twilight
Moon
Length of Visible Light
Length of Day
Tomorrow will be .
, % of the Moon is Illuminated

Today's Extremes

State Highs State Lows

Community

WunderPhotos

Upload Photos

1,791,637 photos uploaded!

WunderBlogs® & News

Nearby

Air Quality

  Air Quality AQ Index Pollutant
Not available.

Snow Depth

Station Depth Elevation

Earthquake Activity

City Distance Mag. Time & Date
Minimum magnitude displayed is 2.5.

Coastal Water Temperatures

Place Temperature

Nearby Weather Stations